Time;durP1;ratioP1;P1;durP2;ratioP2;P2;SDS_P1;SDS_P2;PMS_P1;PMS_P2;Temp;Humidity;BMP_temperature;BMP_pressure;BME280_temperature;BME280_humidity;BME280_pressure;Samples;Min_cycle;Max_cycle;Signal;HPM_P1;HPM_P2
2023/10/10 00:01:43;;;;;;;55.03;15.10;;;;;;;;;;4942793;28;20047;-58
2023/10/10 00:04:12;;;;;;;63.65;17.10;;;;;;;;;;4957843;28;20063;-59
2023/10/10 00:06:40;;;;;;;76.13;17.02;;;;;;;;;;4948651;28;20051;-60
2023/10/10 00:09:10;;;;;;;57.40;16.48;;;;;;;;;;4944119;29;20044;-60
2023/10/10 00:11:42;;;;;;;60.60;16.20;;;;;;;;;;4950277;28;20094;-60
2023/10/10 00:14:18;;;;;;;52.20;17.03;;;;;;;;;;4945265;28;20139;-59
2023/10/10 00:16:47;;;;;;;65.40;16.23;;;;;;;;;;4957458;28;20130;-59
2023/10/10 00:19:19;;;;;;;57.17;15.90;;;;;;;;;;4937316;29;20532;-59
2023/10/10 00:21:52;;;;;;;107.32;18.95;;;;;;;;;;4945298;28;20079;-60
2023/10/10 00:24:25;;;;;;;62.20;16.30;;;;;;;;;;4946213;29;20494;-61
2023/10/10 00:26:53;;;;;;;;;;;;;;;;;;4958873;28;20485;-57
2023/10/10 00:29:25;;;;;;;57.45;14.63;;;;;;;;;;4943055;28;19933;-59
2023/10/10 00:31:55;;;;;;;54.72;16.70;;;;;;;;;;4957556;28;20062;-59
2023/10/10 00:34:33;;;;;;;67.50;14.82;;;;;;;;;;4928331;29;20036;-59
2023/10/10 00:37:08;;;;;;;62.75;16.23;;;;;;;;;;4904254;29;20466;-63
2023/10/10 00:39:36;;;;;;;84.97;16.85;;;;;;;;;;4959920;28;20497;-59
2023/10/10 00:42:14;;;;;;;51.20;13.55;;;;;;;;;;4947640;29;20481;-61
2023/10/10 00:44:40;;;;;;;44.60;14.98;;;;;;;;;;4949364;28;20040;-60
2023/10/10 00:47:12;;;;;;;64.75;14.23;;;;;;;;;;4933209;29;20051;-60
2023/10/10 00:49:43;;;;;;;59.95;15.07;;;;;;;;;;4946817;28;20135;-61
2023/10/10 00:52:12;;;;;;;52.67;14.38;;;;;;;;;;4935098;29;20047;-60
2023/10/10 00:54:43;;;;;;;93.07;17.60;;;;;;;;;;4919978;29;20047;-60
2023/10/10 00:57:11;;;;;;;53.35;14.85;;;;;;;;;;4940416;29;20054;-60
2023/10/10 00:59:46;;;;;;;51.22;14.95;;;;;;;;;;4930050;29;20051;-62
2023/10/10 01:02:14;;;;;;;71.70;17.45;;;;;;;;;;4929771;28;20055;-60
2023/10/10 01:07:18;;;;;;;51.00;14.82;;;;;;;;;;4934571;29;20064;-59
2023/10/10 01:09:55;;;;;;;102.88;19.35;;;;;;;;;;4944399;29;20540;-60
2023/10/10 01:12:23;;;;;;;69.75;14.55;;;;;;;;;;4936892;29;20043;-59
2023/10/10 01:14:57;;;;;;;41.38;13.18;;;;;;;;;;4926619;29;20047;-60
2023/10/10 01:17:30;;;;;;;53.90;14.88;;;;;;;;;;4933180;29;20104;-61
2023/10/10 01:22:51;;;;;;;71.60;14.93;;;;;;;;;;4942513;28;20079;-60
2023/10/10 01:30:59;;;;;;;92.75;15.75;;;;;;;;;;4871630;29;20507;-60
2023/10/10 01:33:36;;;;;;;56.30;13.70;;;;;;;;;;4840981;29;20148;-59
2023/10/10 01:36:11;;;;;;;56.67;15.32;;;;;;;;;;4872409;29;20547;-60
2023/10/10 01:38:56;;;;;;;37.72;11.30;;;;;;;;;;4871761;29;20140;-60
2023/10/10 01:41:38;;;;;;;40.80;12.40;;;;;;;;;;4856638;29;20516;-59
2023/10/10 01:44:12;;;;;;;46.15;12.43;;;;;;;;;;4855727;29;20145;-60
2023/10/10 01:46:40;;;;;;;52.53;12.70;;;;;;;;;;4871689;29;20209;-59
2023/10/10 01:49:19;;;;;;;51.90;12.60;;;;;;;;;;4871498;29;20147;-59
2023/10/10 01:51:50;;;;;;;83.57;14.38;;;;;;;;;;4871046;29;20061;-60
2023/10/10 01:54:28;;;;;;;38.63;10.60;;;;;;;;;;4840767;29;20053;-60
2023/10/10 01:56:56;;;;;;;47.00;11.80;;;;;;;;;;4855960;29;20090;-58
2023/10/10 01:59:25;;;;;;;37.92;10.25;;;;;;;;;;4855888;29;20057;-59
2023/10/10 02:01:54;;;;;;;69.57;11.25;;;;;;;;;;4960822;23;20460;-54
2023/10/10 02:04:28;;;;;;;61.38;12.75;;;;;;;;;;4952098;28;20054;-57
2023/10/10 02:06:56;;;;;;;47.33;11.80;;;;;;;;;;4955146;28;20051;-57
2023/10/10 02:11:53;;;;;;;34.35;10.13;;;;;;;;;;4961704;28;20062;-56
2023/10/10 02:14:25;;;;;;;47.28;10.10;;;;;;;;;;4945959;29;20074;-55
2023/10/10 02:16:54;;;;;;;34.90;9.88;;;;;;;;;;4945648;28;20098;-57
2023/10/10 02:19:39;;;;;;;33.90;9.70;;;;;;;;;;4936403;28;20070;-58
2023/10/10 02:22:19;;;;;;;34.53;8.93;;;;;;;;;;4963911;28;20101;-55
2023/10/10 02:24:49;;;;;;;84.43;12.68;;;;;;;;;;4947988;28;20073;-56
2023/10/10 02:27:22;;;;;;;34.78;9.65;;;;;;;;;;4961637;28;20066;-54
2023/10/10 02:29:49;;;;;;;30.58;9.68;;;;;;;;;;4946857;28;20061;-54
2023/10/10 02:32:19;;;;;;;29.23;10.77;;;;;;;;;;4943971;28;20048;-56
2023/10/10 02:40:14;;;;;;;38.30;9.85;;;;;;;;;;4943092;28;20086;-56
2023/10/10 02:42:50;;;;;;;77.25;13.98;;;;;;;;;;4963467;28;20126;-57
2023/10/10 02:45:27;;;;;;;35.88;9.13;;;;;;;;;;4978965;28;20047;-55
2023/10/10 02:47:54;;;;;;;41.00;10.13;;;;;;;;;;4987432;28;20046;-57
2023/10/10 02:50:40;;;;;;;52.03;10.48;;;;;;;;;;4951000;28;20050;-56
2023/10/10 02:53:08;;;;;;;49.22;10.38;;;;;;;;;;4981831;28;20053;-55
2023/10/10 02:55:40;;;;;;;45.53;10.57;;;;;;;;;;4976011;28;20053;-55
2023/10/10 02:58:20;;;;;;;40.22;10.40;;;;;;;;;;4970683;28;20038;-51
2023/10/10 03:00:51;;;;;;;102.15;13.48;;;;;;;;;;4982598;28;20393;-55
2023/10/10 03:03:18;;;;;;;42.90;11.30;;;;;;;;;;4972337;28;20140;-57
2023/10/10 03:05:54;;;;;;;37.10;10.40;;;;;;;;;;4964653;28;20435;-56
2023/10/10 03:08:34;;;;;;;37.42;11.07;;;;;;;;;;4989075;28;20062;-57
2023/10/10 03:11:02;;;;;;;35.03;11.32;;;;;;;;;;4970719;28;20058;-56
2023/10/10 03:13:37;;;;;;;40.13;11.48;;;;;;;;;;4968976;28;20130;-56
2023/10/10 03:16:41;;;;;;;40.95;10.45;;;;;;;;;;4973336;28;20050;-54
2023/10/10 03:21:51;;;;;;;35.28;9.77;;;;;;;;;;4967391;28;20488;-57
2023/10/10 03:29:50;;;;;;;36.97;9.55;;;;;;;;;;4972848;28;20058;-56
2023/10/10 03:34:56;;;;;;;35.47;11.35;;;;;;;;;;4986159;28;20046;-54
2023/10/10 03:40:09;;;;;;;80.07;13.45;;;;;;;;;;4975037;28;20507;-54
2023/10/10 05:25:22;;;;;;;52.97;16.15;;;;;;;;;;4973978;28;20415;-62
2023/10/10 05:27:51;;;;;;;110.95;19.70;;;;;;;;;;4983449;28;20058;-56
2023/10/10 05:30:23;;;;;;;54.92;15.65;;;;;;;;;;4965662;28;20187;-58
2023/10/10 05:33:00;;;;;;;44.70;13.93;;;;;;;;;;4966128;28;20058;-57
2023/10/10 05:35:28;;;;;;;58.10;15.60;;;;;;;;;;4968962;28;20472;-59
2023/10/10 05:37:55;;;;;;;91.63;17.15;;;;;;;;;;4965381;28;20045;-57
2023/10/10 05:40:22;;;;;;;57.60;15.95;;;;;;;;;;4982941;28;20771;-59
2023/10/10 05:42:49;;;;;;;74.55;16.33;;;;;;;;;;4980176;28;20043;-62
2023/10/10 05:45:15;;;;;;;49.95;15.30;;;;;;;;;;4982238;28;20059;-56
2023/10/10 05:47:42;;;;;;;53.95;14.75;;;;;;;;;;4968105;28;20374;-55
2023/10/10 05:50:10;;;;;;;67.20;15.50;;;;;;;;;;4981752;28;20049;-56
2023/10/10 05:52:39;;;;;;;58.67;17.05;;;;;;;;;;4987019;28;20038;-57
2023/10/10 05:55:07;;;;;;;77.07;18.00;;;;;;;;;;4981778;28;20038;-56
2023/10/10 05:57:34;;;;;;;64.38;17.85;;;;;;;;;;4982998;28;20047;-58
2023/10/10 06:00:00;;;;;;;58.10;16.27;;;;;;;;;;4983006;28;20046;-57
2023/10/10 06:02:27;;;;;;;65.53;19.10;;;;;;;;;;4964739;28;20464;-52
2023/10/10 06:04:54;;;;;;;66.80;16.70;;;;;;;;;;4965594;28;20042;-54
2023/10/10 06:07:21;;;;;;;62.25;16.52;;;;;;;;;;4984043;28;20118;-56
2023/10/10 06:09:51;;;;;;;89.45;19.00;;;;;;;;;;4964667;28;20746;-56
2023/10/10 06:12:19;;;;;;;48.22;16.38;;;;;;;;;;4961573;28;20097;-56
2023/10/10 06:14:46;;;;;;;61.92;17.75;;;;;;;;;;4984107;28;20038;-61
2023/10/10 06:17:13;;;;;;;67.93;17.30;;;;;;;;;;4962259;28;20050;-57
2023/10/10 06:19:45;;;;;;;51.92;16.95;;;;;;;;;;4982980;28;20053;-54
2023/10/10 06:22:15;;;;;;;53.58;16.98;;;;;;;;;;4955567;28;20046;-53
2023/10/10 06:24:42;;;;;;;69.72;16.92;;;;;;;;;;4967666;28;20142;-54
2023/10/10 06:27:09;;;;;;;54.05;16.70;;;;;;;;;;4983771;28;20074;-55
2023/10/10 06:29:38;;;;;;;53.55;16.95;;;;;;;;;;4966881;28;20061;-56
2023/10/10 06:32:10;;;;;;;62.85;17.55;;;;;;;;;;4981160;28;20041;-54
2023/10/10 06:34:37;;;;;;;47.03;17.33;;;;;;;;;;4969124;28;20046;-53
2023/10/10 06:37:07;;;;;;;102.38;19.77;;;;;;;;;;4982037;28;20284;-55
2023/10/10 06:39:34;;;;;;;64.45;19.05;;;;;;;;;;4982499;28;20566;-57
2023/10/10 06:42:03;;;;;;;55.90;17.10;;;;;;;;;;4968683;28;20050;-57
2023/10/10 06:44:39;;;;;;;57.42;19.17;;;;;;;;;;4963904;28;20051;-54
2023/10/10 06:47:10;;;;;;;51.35;19.88;;;;;;;;;;4973542;28;20054;-56
2023/10/10 06:49:46;;;;;;;62.97;17.75;;;;;;;;;;4981603;28;20042;-55
2023/10/10 06:52:19;;;;;;;64.30;19.92;;;;;;;;;;4967875;28;20046;-56
2023/10/10 06:54:53;;;;;;;108.00;23.10;;;;;;;;;;4979172;28;20066;-57
2023/10/10 06:57:57;;;;;;;69.85;20.25;;;;;;;;;;4982522;28;20053;-53
2023/10/10 07:00:27;;;;;;;58.60;19.77;;;;;;;;;;4981082;28;20050;-57
2023/10/10 07:02:55;;;;;;;61.50;19.63;;;;;;;;;;4985053;28;20047;-55
2023/10/10 07:05:26;;;;;;;47.40;20.85;;;;;;;;;;4981355;28;20101;-52
2023/10/10 07:08:19;;;;;;;67.53;20.23;;;;;;;;;;4983095;28;20043;-51
2023/10/10 07:10:45;;;;;;;53.95;19.63;;;;;;;;;;4981240;28;20042;-54
2023/10/10 07:13:18;;;;;;;66.63;19.75;;;;;;;;;;4965256;28;20071;-54
2023/10/10 07:15:52;;;;;;;98.78;21.48;;;;;;;;;;4980501;28;20432;-51
2023/10/10 07:18:22;;;;;;;46.03;19.00;;;;;;;;;;4982374;28;20682;-55
2023/10/10 07:21:17;;;;;;;64.95;21.42;;;;;;;;;;4976949;28;20101;-55
2023/10/10 07:26:41;;;;;;;54.88;19.23;;;;;;;;;;4962313;28;20051;-58
2023/10/10 07:29:57;;;;;;;53.53;18.95;;;;;;;;;;4968924;28;20543;-53
2023/10/10 07:32:17;;;;;;;56.95;19.42;;;;;;;;;;4985145;28;20134;-59
2023/10/10 07:34:49;;;;;;;60.67;22.00;;;;;;;;;;4973212;28;20039;-58
2023/10/10 07:37:29;;;;;;;71.22;21.83;;;;;;;;;;4985778;28;20432;-54
2023/10/10 07:39:56;;;;;;;103.10;22.30;;;;;;;;;;4990235;28;20038;-54
2023/10/10 07:42:27;;;;;;;60.63;21.45;;;;;;;;;;4995875;28;20056;-55
2023/10/10 07:44:54;;;;;;;82.88;21.95;;;;;;;;;;4996602;28;20045;-57
2023/10/10 07:47:32;;;;;;;71.57;21.25;;;;;;;;;;4983230;28;20057;-57
2023/10/10 07:50:08;;;;;;;59.80;19.95;;;;;;;;;;5000568;28;20125;-58
2023/10/10 07:52:35;;;;;;;72.53;20.73;;;;;;;;;;4996039;28;20471;-56
2023/10/10 07:55:04;;;;;;;69.78;19.15;;;;;;;;;;4995519;28;20046;-58
2023/10/10 07:57:55;;;;;;;48.00;17.50;;;;;;;;;;4992785;28;20455;-57
2023/10/10 08:00:17;;;;;;;55.65;21.40;;;;;;;;;;4982904;28;20050;-59
2023/10/10 08:02:49;;;;;;;59.17;20.02;;;;;;;;;;4990075;28;20479;-55
2023/10/10 08:05:19;;;;;;;90.30;21.67;;;;;;;;;;4986960;28;20050;-55
2023/10/10 08:07:46;;;;;;;67.22;20.58;;;;;;;;;;4973109;28;20051;-53
2023/10/10 08:10:14;;;;;;;67.95;19.75;;;;;;;;;;4985694;28;20057;-58
2023/10/10 08:12:41;;;;;;;116.15;22.77;;;;;;;;;;4968318;28;20050;-60
2023/10/10 08:15:24;;;;;;;52.95;20.58;;;;;;;;;;4953800;28;20117;-54
2023/10/10 08:17:52;;;;;;;44.55;19.58;;;;;;;;;;4967938;28;20058;-55
2023/10/10 08:21:08;;;;;;;56.53;20.63;;;;;;;;;;4965461;28;20043;-55
2023/10/10 08:23:25;;;;;;;52.22;18.35;;;;;;;;;;4977670;28;20046;-53
2023/10/10 08:25:52;;;;;;;67.60;20.25;;;;;;;;;;4986360;28;20594;-57
2023/10/10 08:28:21;;;;;;;52.55;19.02;;;;;;;;;;4975510;28;20046;-59
2023/10/10 08:30:48;;;;;;;87.45;21.63;;;;;;;;;;4982783;28;20038;-57
2023/10/10 08:33:15;;;;;;;67.53;20.58;;;;;;;;;;4986438;28;20075;-58
2023/10/10 08:35:42;;;;;;;65.05;21.60;;;;;;;;;;4964915;28;20062;-58
2023/10/10 08:38:19;;;;;;;47.40;18.00;;;;;;;;;;4987474;28;20057;-58
2023/10/10 08:40:56;;;;;;;44.80;17.75;;;;;;;;;;4950249;28;20050;-55
2023/10/10 08:43:31;;;;;;;52.95;18.40;;;;;;;;;;4969285;28;20121;-57
2023/10/10 08:46:03;;;;;;;91.57;20.80;;;;;;;;;;4983781;28;20046;-57
2023/10/10 08:48:33;;;;;;;50.97;18.02;;;;;;;;;;4983675;28;20456;-55
2023/10/10 08:51:04;;;;;;;55.28;18.02;;;;;;;;;;4967091;28;20097;-54
2023/10/10 08:53:35;;;;;;;52.63;17.70;;;;;;;;;;4964240;28;20192;-59
2023/10/10 08:56:03;;;;;;;570.80;58.95;;;;;;;;;;4969507;23;20049;-89
2023/10/10 08:58:33;;;;;;;347.00;40.53;;;;;;;;;;4933030;28;20066;-89
2023/10/10 09:09:54;;;;;;;112.57;18.52;;;;;;;;;;5341123;23;20063;-59
2023/10/10 09:12:24;;;;;;;65.38;15.63;;;;;;;;;;4944869;28;20050;-57
2023/10/10 09:14:51;;;;;;;41.67;13.38;;;;;;;;;;4947803;28;20043;-60
2023/10/10 09:17:28;;;;;;;32.30;12.85;;;;;;;;;;4947006;28;20146;-58
2023/10/10 09:19:58;;;;;;;55.33;11.82;;;;;;;;;;4964162;28;20070;-57
2023/10/10 09:22:34;;;;;;;56.60;11.57;;;;;;;;;;4941036;28;20070;-58
2023/10/10 09:25:18;;;;;;;62.83;10.68;;;;;;;;;;4985736;28;20142;-57
2023/10/10 09:28:07;;;;;;;58.78;11.50;;;;;;;;;;4984240;28;20476;-57
2023/10/10 09:31:20;;;;;;;41.13;9.70;;;;;;;;;;4972664;28;20050;-57
2023/10/10 09:33:28;;;;;;;48.47;9.65;;;;;;;;;;4972732;28;20082;-57
2023/10/10 09:36:04;;;;;;;39.67;8.40;;;;;;;;;;4968954;28;20142;-57
2023/10/10 09:38:35;;;;;;;51.25;9.18;;;;;;;;;;4967670;28;20074;-59
2023/10/10 09:41:14;;;;;;;45.80;9.32;;;;;;;;;;4986978;28;20098;-57
2023/10/10 09:43:50;;;;;;;67.13;10.50;;;;;;;;;;4983474;28;20046;-57
2023/10/10 09:46:23;;;;;;;40.00;8.35;;;;;;;;;;4984396;28;20061;-58
2023/10/10 09:54:16;;;;;;;35.83;7.43;;;;;;;;;;4975543;28;20042;-57
2023/10/10 09:56:46;;;;;;;32.88;8.20;;;;;;;;;;4983066;28;20661;-59
2023/10/10 09:59:19;;;;;;;46.70;8.10;;;;;;;;;;4966620;28;20050;-57
2023/10/10 10:01:47;;;;;;;24.45;7.60;;;;;;;;;;4982855;28;20085;-58
2023/10/10 10:04:18;;;;;;;44.75;8.32;;;;;;;;;;4985634;28;20460;-58
2023/10/10 10:06:57;;;;;;;39.90;8.52;;;;;;;;;;4965710;28;20047;-58
2023/10/10 10:09:32;;;;;;;60.10;9.38;;;;;;;;;;4962500;28;20523;-61
2023/10/10 10:12:08;;;;;;;33.53;7.70;;;;;;;;;;4984963;28;20130;-58
2023/10/10 10:14:54;;;;;;;41.03;8.40;;;;;;;;;;4983203;28;20129;-57
2023/10/10 10:17:44;;;;;;;31.13;6.55;;;;;;;;;;4959960;28;20051;-57
2023/10/10 10:20:20;;;;;;;32.05;6.35;;;;;;;;;;4980139;28;20043;-58
2023/10/10 10:22:53;;;;;;;45.40;7.38;;;;;;;;;;4982028;28;20039;-58
2023/10/10 10:25:23;;;;;;;40.85;7.65;;;;;;;;;;4983732;28;20325;-57
2023/10/10 10:28:00;;;;;;;91.22;10.05;;;;;;;;;;4969098;28;20104;-60
2023/10/10 10:32:58;;;;;;;36.13;6.38;;;;;;;;;;4971499;28;20046;-59
2023/10/10 10:35:36;;;;;;;35.00;5.82;;;;;;;;;;4982818;28;20049;-58
2023/10/10 10:38:06;;;;;;;39.05;6.50;;;;;;;;;;4964056;28;20065;-57
2023/10/10 10:43:16;;;;;;;48.88;6.35;;;;;;;;;;4983207;28;20476;-58
2023/10/10 10:45:51;;;;;;;39.38;5.80;;;;;;;;;;4980489;28;20047;-61
2023/10/10 10:48:33;;;;;;;28.55;4.90;;;;;;;;;;4970881;28;20051;-59
2023/10/10 10:51:22;;;;;;;24.15;4.90;;;;;;;;;;4965284;28;20129;-58
2023/10/10 10:53:59;;;;;;;23.52;5.10;;;;;;;;;;4961004;28;20051;-59
2023/10/10 10:59:12;;;;;;;31.50;5.68;;;;;;;;;;4982374;28;20113;-59
2023/10/10 11:01:51;;;;;;;13.05;4.65;;;;;;;;;;4969952;28;20062;-57
2023/10/10 11:07:03;;;;;;;51.42;6.07;;;;;;;;;;4985111;28;20054;-59
2023/10/10 11:09:32;;;;;;;35.92;5.40;;;;;;;;;;4987664;28;20086;-60
2023/10/10 11:12:02;;;;;;;27.63;5.55;;;;;;;;;;4983591;28;20050;-57
2023/10/10 11:14:32;;;;;;;29.92;5.45;;;;;;;;;;4989434;28;20050;-58
2023/10/10 11:16:59;;;;;;;35.80;4.95;;;;;;;;;;4967485;28;20122;-60
2023/10/10 11:21:57;;;;;;;99.20;8.35;;;;;;;;;;4986349;28;20411;-58
2023/10/10 11:24:25;;;;;;;43.35;5.70;;;;;;;;;;4987062;28;20042;-59
2023/10/10 11:27:14;;;;;;;22.42;4.50;;;;;;;;;;4975775;28;20451;-58
2023/10/10 11:29:45;;;;;;;24.52;4.57;;;;;;;;;;4985812;28;20046;-59
2023/10/10 11:32:23;;;;;;;20.23;4.43;;;;;;;;;;4970110;28;20133;-59
2023/10/10 11:35:17;;;;;;;24.55;4.25;;;;;;;;;;4974112;28;20041;-58
2023/10/10 11:37:59;;;;;;;22.85;4.60;;;;;;;;;;4981799;28;20693;-57
2023/10/10 11:42:55;;;;;;;79.65;8.38;;;;;;;;;;4976363;28;20049;-58
2023/10/10 11:45:26;;;;;;;41.15;5.70;;;;;;;;;;4974457;28;20203;-57
2023/10/10 11:48:10;;;;;;;11.57;3.17;;;;;;;;;;4973688;28;20042;-57
2023/10/10 11:50:45;;;;;;;19.98;3.35;;;;;;;;;;4974046;28;20142;-57
2023/10/10 11:53:19;;;;;;;27.60;3.58;;;;;;;;;;4965879;28;20050;-59
2023/10/10 11:55:47;;;;;;;35.17;4.30;;;;;;;;;;4967166;28;20042;-60
2023/10/10 11:58:17;;;;;;;26.90;3.95;;;;;;;;;;4966232;28;20058;-58
2023/10/10 12:00:44;;;;;;;28.25;4.30;;;;;;;;;;4976610;28;20074;-61
2023/10/10 12:03:32;;;;;;;31.65;4.25;;;;;;;;;;4975473;28;20050;-59
2023/10/10 12:06:00;;;;;;;24.10;3.85;;;;;;;;;;4984696;28;20074;-57
2023/10/10 12:08:26;;;;;;;43.30;5.10;;;;;;;;;;4970178;28;20062;-59
2023/10/10 12:11:04;;;;;;;37.28;4.30;;;;;;;;;;4968902;28;20046;-57
2023/10/10 12:15:59;;;;;;;66.90;6.18;;;;;;;;;;4980945;28;20401;-61
2023/10/10 12:18:30;;;;;;;25.00;3.63;;;;;;;;;;4983370;28;20044;-59
2023/10/10 12:21:03;;;;;;;16.30;3.28;;;;;;;;;;4967323;28;20703;-58
2023/10/10 12:23:31;;;;;;;25.73;3.35;;;;;;;;;;4969785;28;20048;-58
2023/10/10 12:25:59;;;;;;;34.28;3.67;;;;;;;;;;4984515;28;20610;-59
2023/10/10 12:28:26;;;;;;;50.50;4.97;;;;;;;;;;4965080;28;20126;-57
2023/10/10 12:30:56;;;;;;;65.00;6.25;;;;;;;;;;4985631;28;20069;-58
2023/10/10 12:33:24;;;;;;;19.15;3.25;;;;;;;;;;4973540;28;20061;-57
2023/10/10 12:35:51;;;;;;;152.75;11.05;;;;;;;;;;4985376;28;20043;-59
2023/10/10 12:38:21;;;;;;;24.95;3.70;;;;;;;;;;4965256;28;20057;-61
2023/10/10 12:40:52;;;;;;;26.67;3.63;;;;;;;;;;4974874;28;20042;-58
2023/10/10 12:43:19;;;;;;;28.40;3.47;;;;;;;;;;4966337;28;20089;-57
2023/10/10 12:45:46;;;;;;;39.20;4.18;;;;;;;;;;4983176;28;20042;-58
2023/10/10 12:48:14;;;;;;;21.70;3.30;;;;;;;;;;4974373;28;20053;-57
2023/10/10 12:50:41;;;;;;;91.07;8.63;;;;;;;;;;4974149;28;20050;-56
2023/10/10 12:53:08;;;;;;;47.72;5.72;;;;;;;;;;4969820;28;20133;-58
2023/10/10 12:55:36;;;;;;;53.28;5.57;;;;;;;;;;4984286;28;21869;-58
2023/10/10 12:58:14;;;;;;;72.70;5.88;;;;;;;;;;4983861;28;20074;-57
2023/10/10 13:00:49;;;;;;;29.80;3.80;;;;;;;;;;4982044;28;20437;-57
2023/10/10 13:03:28;;;;;;;23.92;3.42;;;;;;;;;;4983197;28;20058;-58
2023/10/10 13:05:59;;;;;;;48.33;5.13;;;;;;;;;;4982818;28;20491;-59
2023/10/10 13:08:38;;;;;;;38.28;4.25;;;;;;;;;;4963652;28;20055;-57
2023/10/10 13:11:12;;;;;;;41.75;4.47;;;;;;;;;;4973311;28;20466;-58
2023/10/10 13:13:45;;;;;;;32.08;3.75;;;;;;;;;;4969854;28;20046;-59
2023/10/10 13:18:54;;;;;;;58.63;4.85;;;;;;;;;;4964011;28;20053;-57
2023/10/10 13:21:22;;;;;;;27.73;3.30;;;;;;;;;;4985874;28;20038;-58
2023/10/10 13:23:49;;;;;;;33.33;5.15;;;;;;;;;;4985583;28;20050;-61
2023/10/10 13:26:16;;;;;;;36.80;4.45;;;;;;;;;;4980771;28;20074;-62
2023/10/10 13:28:46;;;;;;;30.00;3.60;;;;;;;;;;4973756;28;20050;-58
2023/10/10 13:31:17;;;;;;;54.65;4.60;;;;;;;;;;4970349;28;20066;-64
2023/10/10 13:33:44;;;;;;;45.97;4.55;;;;;;;;;;4965024;28;20097;-60
2023/10/10 13:36:12;;;;;;;28.27;2.92;;;;;;;;;;4967041;28;20050;-59
2023/10/10 13:38:47;;;;;;;14.18;2.65;;;;;;;;;;4982169;28;20046;-58
2023/10/10 13:41:21;;;;;;;58.05;5.57;;;;;;;;;;4966081;28;20046;-61
2023/10/10 13:43:48;;;;;;;37.97;4.15;;;;;;;;;;4965521;28;20051;-65
2023/10/10 13:46:15;;;;;;;38.28;3.95;;;;;;;;;;4969996;28;20661;-61
2023/10/10 13:48:42;;;;;;;30.38;3.17;;;;;;;;;;4956612;28;20050;-64
2023/10/10 13:51:09;;;;;;;29.45;3.40;;;;;;;;;;4983400;28;20104;-62
2023/10/10 13:53:40;;;;;;;88.15;6.60;;;;;;;;;;4980159;28;20070;-61
2023/10/10 13:56:07;;;;;;;37.38;3.85;;;;;;;;;;4984226;28;20035;-58
2023/10/10 13:58:36;;;;;;;47.70;3.92;;;;;;;;;;4973078;28;20540;-59
2023/10/10 14:01:29;;;;;;;78.38;5.90;;;;;;;;;;4967695;28;20038;-60
2023/10/10 14:04:01;;;;;;;97.13;7.40;;;;;;;;;;4982133;28;20121;-59
2023/10/10 14:06:34;;;;;;;103.15;7.32;;;;;;;;;;4982248;28;20050;-59
2023/10/10 14:09:03;;;;;;;29.20;3.22;;;;;;;;;;4981101;28;20051;-60
2023/10/10 14:11:32;;;;;;;18.30;2.47;;;;;;;;;;4971226;28;20051;-60
2023/10/10 14:13:59;;;;;;;28.75;3.22;;;;;;;;;;4972305;28;20043;-63
2023/10/10 14:16:26;;;;;;;30.98;3.30;;;;;;;;;;4982141;28;20039;-58
2023/10/10 14:18:52;;;;;;;58.95;5.10;;;;;;;;;;4982113;28;20054;-58
2023/10/10 14:21:26;;;;;;;31.10;3.35;;;;;;;;;;4985086;28;20116;-62
2023/10/10 14:24:13;;;;;;;24.55;2.78;;;;;;;;;;4965520;28;20058;-63
2023/10/10 14:26:43;;;;;;;48.05;5.07;;;;;;;;;;4967024;28;20129;-61
2023/10/10 14:29:13;;;;;;;38.03;4.00;;;;;;;;;;4996577;28;20046;-59
2023/10/10 14:31:44;;;;;;;54.60;4.93;;;;;;;;;;4998788;28;20485;-57
2023/10/10 14:34:26;;;;;;;44.67;4.55;;;;;;;;;;4973684;28;20046;-57
2023/10/10 14:36:54;;;;;;;39.63;4.13;;;;;;;;;;4965492;28;20061;-58
2023/10/10 14:39:36;;;;;;;55.55;6.20;;;;;;;;;;4983357;28;20121;-58
2023/10/10 14:42:03;;;;;;;40.58;4.13;;;;;;;;;;4974563;28;20077;-60
2023/10/10 14:44:31;;;;;;;18.35;3.33;;;;;;;;;;4970987;28;20045;-65
2023/10/10 14:46:58;;;;;;;34.72;4.10;;;;;;;;;;4974689;28;20047;-62
2023/10/10 14:49:31;;;;;;;33.05;5.13;;;;;;;;;;4977052;28;20046;-66
2023/10/10 14:52:05;;;;;;;76.45;5.95;;;;;;;;;;4969001;28;20515;-59
2023/10/10 14:54:37;;;;;;;42.22;4.13;;;;;;;;;;4966163;28;20043;-59
2023/10/10 14:57:05;;;;;;;55.60;5.15;;;;;;;;;;4970900;28;20042;-58
2023/10/10 14:59:31;;;;;;;31.80;3.55;;;;;;;;;;4975544;28;20066;-59
2023/10/10 15:02:04;;;;;;;38.35;4.07;;;;;;;;;;4995805;28;20178;-58
2023/10/10 15:04:33;;;;;;;56.30;4.55;;;;;;;;;;4976007;28;20042;-58
2023/10/10 15:07:00;;;;;;;67.68;5.88;;;;;;;;;;4985223;28;20053;-59
2023/10/10 15:09:27;;;;;;;25.83;3.72;;;;;;;;;;4989070;28;20495;-59
2023/10/10 15:11:58;;;;;;;37.95;4.00;;;;;;;;;;4973088;28;20094;-59
2023/10/10 15:14:25;;;;;;;54.13;5.35;;;;;;;;;;4976596;28;20042;-62
2023/10/10 15:16:53;;;;;;;24.27;4.05;;;;;;;;;;4974336;28;20147;-58
2023/10/10 15:19:19;;;;;;;54.33;4.90;;;;;;;;;;4985439;28;20137;-57
2023/10/10 15:21:49;;;;;;;106.57;8.90;;;;;;;;;;4968452;28;20138;-59
2023/10/10 15:24:16;;;;;;;133.75;8.93;;;;;;;;;;4978245;28;20046;-58
2023/10/10 15:26:46;;;;;;;62.35;6.03;;;;;;;;;;4988076;28;20089;-57
2023/10/10 15:29:14;;;;;;;58.92;5.68;;;;;;;;;;4972712;28;20097;-57
2023/10/10 15:31:41;;;;;;;58.70;5.72;;;;;;;;;;4982698;28;20111;-59
2023/10/10 15:34:12;;;;;;;100.93;7.15;;;;;;;;;;4985315;28;20096;-57
2023/10/10 15:36:43;;;;;;;64.32;5.80;;;;;;;;;;4966804;28;20055;-58
2023/10/10 15:39:10;;;;;;;93.63;8.45;;;;;;;;;;4974600;28;20046;-58
2023/10/10 15:41:38;;;;;;;125.25;11.93;;;;;;;;;;4973296;28;20460;-58
2023/10/10 15:44:06;;;;;;;155.63;14.38;;;;;;;;;;4967718;28;20038;-59
2023/10/10 15:46:36;;;;;;;114.75;11.77;;;;;;;;;;4984571;28;20050;-58
2023/10/10 15:49:11;;;;;;;145.17;14.10;;;;;;;;;;4985064;28;20051;-58
2023/10/10 15:52:03;;;;;;;110.55;8.18;;;;;;;;;;4967772;28;20116;-59
2023/10/10 15:54:33;;;;;;;73.40;5.80;;;;;;;;;;4973049;28;20062;-58
2023/10/10 15:57:08;;;;;;;72.80;7.53;;;;;;;;;;4984434;28;20065;-58
2023/10/10 15:59:41;;;;;;;72.15;7.38;;;;;;;;;;4970762;28;20129;-57
2023/10/10 16:02:09;;;;;;;58.92;6.25;;;;;;;;;;4946871;28;20039;-59
2023/10/10 16:04:42;;;;;;;108.43;9.65;;;;;;;;;;4975735;28;20058;-58
2023/10/10 16:07:10;;;;;;;110.22;10.75;;;;;;;;;;4967803;28;20042;-58
2023/10/10 16:09:37;;;;;;;91.70;8.90;;;;;;;;;;4986175;28;20452;-58
2023/10/10 16:12:07;;;;;;;106.28;8.48;;;;;;;;;;4987916;28;20068;-58
2023/10/10 16:14:36;;;;;;;47.08;6.05;;;;;;;;;;4965113;28;20034;-57
2023/10/10 16:17:03;;;;;;;59.72;7.15;;;;;;;;;;4969718;28;20047;-58
2023/10/10 16:19:32;;;;;;;66.18;8.95;;;;;;;;;;4970768;28;20062;-57
2023/10/10 16:22:01;;;;;;;74.80;7.75;;;;;;;;;;4965845;28;20047;-57
2023/10/10 16:24:27;;;;;;;58.67;7.45;;;;;;;;;;4974072;28;20376;-56
2023/10/10 16:27:02;;;;;;;47.83;6.38;;;;;;;;;;4965556;28;20042;-56
2023/10/10 16:29:35;;;;;;;60.33;7.38;;;;;;;;;;4972439;28;20053;-57
2023/10/10 16:32:07;;;;;;;53.05;8.65;;;;;;;;;;4965654;28;20050;-57
2023/10/10 16:34:36;;;;;;;48.47;7.67;;;;;;;;;;4968889;28;20744;-59
2023/10/10 16:37:09;;;;;;;75.75;9.38;;;;;;;;;;4973787;28;20046;-58
2023/10/10 16:39:38;;;;;;;54.63;7.40;;;;;;;;;;4991272;28;20412;-57
2023/10/10 16:42:05;;;;;;;39.58;8.07;;;;;;;;;;4974325;28;20042;-57
2023/10/10 16:44:32;;;;;;;24.70;6.18;;;;;;;;;;4984309;28;20046;-58
2023/10/10 16:47:00;;;;;;;48.13;8.75;;;;;;;;;;4973213;28;20054;-58
2023/10/10 16:49:28;;;;;;;43.28;8.63;;;;;;;;;;4966415;28;20502;-58
2023/10/10 16:51:54;;;;;;;65.25;9.43;;;;;;;;;;4981817;28;20042;-56
2023/10/10 16:54:21;;;;;;;36.67;7.82;;;;;;;;;;4965878;28;20407;-56
2023/10/10 16:56:48;;;;;;;42.22;8.73;;;;;;;;;;4973643;28;20038;-58
2023/10/10 16:59:15;;;;;;;43.83;7.90;;;;;;;;;;4986004;28;20596;-57
2023/10/10 17:01:42;;;;;;;42.50;7.57;;;;;;;;;;4988041;28;20034;-57
2023/10/10 17:04:09;;;;;;;80.97;9.25;;;;;;;;;;4965993;28;20046;-57
2023/10/10 17:06:36;;;;;;;28.42;7.15;;;;;;;;;;4981660;28;20047;-59
2023/10/10 17:09:04;;;;;;;45.33;7.75;;;;;;;;;;4966858;28;20039;-58
2023/10/10 17:11:31;;;;;;;45.65;7.13;;;;;;;;;;4971606;28;20456;-61
2023/10/10 17:13:59;;;;;;;45.53;7.47;;;;;;;;;;4972636;28;20042;-57
2023/10/10 17:16:29;;;;;;;43.30;7.50;;;;;;;;;;4985235;28;20391;-58
2023/10/10 17:18:57;;;;;;;73.53;8.82;;;;;;;;;;4974047;28;20050;-58
2023/10/10 17:21:45;;;;;;;33.92;6.97;;;;;;;;;;4980953;28;20058;-57
2023/10/10 17:24:15;;;;;;;30.70;7.07;;;;;;;;;;4972059;28;20057;-56
2023/10/10 17:26:43;;;;;;;36.30;8.13;;;;;;;;;;4970227;28;20055;-57
2023/10/10 17:29:13;;;;;;;55.15;9.27;;;;;;;;;;4981308;28;20055;-58
2023/10/10 17:31:41;;;;;;;67.93;11.82;;;;;;;;;;4974166;28;20049;-58
2023/10/10 17:34:08;;;;;;;91.10;14.20;;;;;;;;;;4965318;28;20136;-57
2023/10/10 17:36:40;;;;;;;57.42;12.60;;;;;;;;;;4983178;28;20045;-57
2023/10/10 17:39:08;;;;;;;38.80;10.52;;;;;;;;;;4966885;28;20038;-58
2023/10/10 17:41:35;;;;;;;42.08;10.90;;;;;;;;;;4976383;28;20130;-57
2023/10/10 17:44:08;;;;;;;49.53;12.60;;;;;;;;;;4966990;28;20038;-58